sensor_id;sensor_type;location;lat;lon;timestamp;temperature;humidity
29353;DHT22;16344;50.364;8.944;2022-07-10T00:00:56;17.70;99.90
29353;DHT22;16344;50.364;8.944;2022-07-10T00:03:21;17.80;99.90
29353;DHT22;16344;50.364;8.944;2022-07-10T00:05:47;17.70;99.90
29353;DHT22;16344;50.364;8.944;2022-07-10T00:08:14;17.70;99.90
29353;DHT22;16344;50.364;8.944;2022-07-10T00:10:40;17.70;99.90
29353;DHT22;16344;50.364;8.944;2022-07-10T00:13:05;17.60;99.90
29353;DHT22;16344;50.364;8.944;2022-07-10T00:15:31;17.60;99.90
29353;DHT22;16344;50.364;8.944;2022-07-10T00:17:57;17.60;99.90
29353;DHT22;16344;50.364;8.944;2022-07-10T00:20:23;17.50;99.90
29353;DHT22;16344;50.364;8.944;2022-07-10T00:22:48;17.40;99.90
29353;DHT22;16344;50.364;8.944;2022-07-10T00:25:14;17.50;99.90
29353;DHT22;16344;50.364;8.944;2022-07-10T00:27:41;17.50;99.90
29353;DHT22;16344;50.364;8.944;2022-07-10T00:30:07;17.50;99.90
29353;DHT22;16344;50.364;8.944;2022-07-10T00:32:33;17.40;99.90
29353;DHT22;16344;50.364;8.944;2022-07-10T00:34:59;17.30;99.90
29353;DHT22;16344;50.364;8.944;2022-07-10T00:37:24;17.30;99.90
29353;DHT22;16344;50.364;8.944;2022-07-10T00:39:50;17.20;99.90
29353;DHT22;16344;50.364;8.944;2022-07-10T00:42:16;17.10;99.90
29353;DHT22;16344;50.364;8.944;2022-07-10T00:44:42;17.00;99.90
29353;DHT22;16344;50.364;8.944;2022-07-10T00:47:09;17.00;99.90
29353;DHT22;16344;50.364;8.944;2022-07-10T00:49:37;17.00;99.90
29353;DHT22;16344;50.364;8.944;2022-07-10T00:52:10;17.00;99.90
29353;DHT22;16344;50.364;8.944;2022-07-10T00:54:36;17.00;99.90
29353;DHT22;16344;50.364;8.944;2022-07-10T00:57:04;17.10;99.90
29353;DHT22;16344;50.364;8.944;2022-07-10T00:59:30;17.10;99.90
29353;DHT22;16344;50.364;8.944;2022-07-10T01:01:56;17.00;99.90
29353;DHT22;16344;50.364;8.944;2022-07-10T01:04:22;17.10;99.90
29353;DHT22;16344;50.364;8.944;2022-07-10T01:06:47;17.10;99.90
29353;DHT22;16344;50.364;8.944;2022-07-10T01:09:13;17.10;99.90
29353;DHT22;16344;50.364;8.944;2022-07-10T01:11:39;17.00;99.90
29353;DHT22;16344;50.364;8.944;2022-07-10T01:14:05;17.00;99.90
29353;DHT22;16344;50.364;8.944;2022-07-10T01:16:31;16.90;99.90
29353;DHT22;16344;50.364;8.944;2022-07-10T01:18:57;16.80;99.90
29353;DHT22;16344;50.364;8.944;2022-07-10T01:21:27;16.80;99.90
29353;DHT22;16344;50.364;8.944;2022-07-10T01:23:54;16.80;99.90
29353;DHT22;16344;50.364;8.944;2022-07-10T01:26:20;16.90;99.90
29353;DHT22;16344;50.364;8.944;2022-07-10T01:28:50;17.00;99.90
29353;DHT22;16344;50.364;8.944;2022-07-10T01:31:19;17.10;99.90
29353;DHT22;16344;50.364;8.944;2022-07-10T01:33:46;17.20;99.90
29353;DHT22;16344;50.364;8.944;2022-07-10T01:36:12;17.10;99.90
29353;DHT22;16344;50.364;8.944;2022-07-10T01:38:39;17.00;99.90
29353;DHT22;16344;50.364;8.944;2022-07-10T01:41:05;17.00;99.90
29353;DHT22;16344;50.364;8.944;2022-07-10T01:43:30;16.90;99.90
29353;DHT22;16344;50.364;8.944;2022-07-10T01:45:56;16.70;99.90
29353;DHT22;16344;50.364;8.944;2022-07-10T01:48:21;16.70;99.90
29353;DHT22;16344;50.364;8.944;2022-07-10T01:50:47;16.80;99.90
29353;DHT22;16344;50.364;8.944;2022-07-10T01:53:12;16.70;99.90
29353;DHT22;16344;50.364;8.944;2022-07-10T01:55:38;16.70;99.90
29353;DHT22;16344;50.364;8.944;2022-07-10T01:58:03;16.60;99.90
29353;DHT22;16344;50.364;8.944;2022-07-10T02:00:29;16.50;99.90
29353;DHT22;16344;50.364;8.944;2022-07-10T02:02:54;16.50;99.90
29353;DHT22;16344;50.364;8.944;2022-07-10T02:05:39;16.40;99.90
29353;DHT22;16344;50.364;8.944;2022-07-10T02:08:04;16.20;99.90
29353;DHT22;16344;50.364;8.944;2022-07-10T02:10:31;16.30;99.90
29353;DHT22;16344;50.364;8.944;2022-07-10T02:12:57;16.20;99.90
29353;DHT22;16344;50.364;8.944;2022-07-10T02:15:23;16.20;99.90
29353;DHT22;16344;50.364;8.944;2022-07-10T02:17:49;16.20;99.90
29353;DHT22;16344;50.364;8.944;2022-07-10T02:20:15;16.10;99.90
29353;DHT22;16344;50.364;8.944;2022-07-10T02:22:41;16.10;99.90
29353;DHT22;16344;50.364;8.944;2022-07-10T02:25:06;16.10;99.90
29353;DHT22;16344;50.364;8.944;2022-07-10T02:27:32;16.10;99.90
29353;DHT22;16344;50.364;8.944;2022-07-10T02:29:58;16.20;99.90
29353;DHT22;16344;50.364;8.944;2022-07-10T02:32:23;16.20;99.90
29353;DHT22;16344;50.364;8.944;2022-07-10T02:34:49;16.30;99.90
29353;DHT22;16344;50.364;8.944;2022-07-10T02:37:14;16.30;99.90
29353;DHT22;16344;50.364;8.944;2022-07-10T02:39:40;16.30;99.90
29353;DHT22;16344;50.364;8.944;2022-07-10T02:42:05;16.30;99.90
29353;DHT22;16344;50.364;8.944;2022-07-10T02:44:31;16.30;99.90
29353;DHT22;16344;50.364;8.944;2022-07-10T02:46:57;16.30;99.90
29353;DHT22;16344;50.364;8.944;2022-07-10T02:49:22;16.20;99.90
29353;DHT22;16344;50.364;8.944;2022-07-10T02:51:48;16.30;99.90
29353;DHT22;16344;50.364;8.944;2022-07-10T02:54:13;16.30;99.90
29353;DHT22;16344;50.364;8.944;2022-07-10T02:56:39;16.30;99.90
29353;DHT22;16344;50.364;8.944;2022-07-10T02:59:04;16.20;99.90
29353;DHT22;16344;50.364;8.944;2022-07-10T03:01:31;16.20;99.90
29353;DHT22;16344;50.364;8.944;2022-07-10T03:03:57;16.20;99.90
29353;DHT22;16344;50.364;8.944;2022-07-10T03:06:23;16.20;99.90
29353;DHT22;16344;50.364;8.944;2022-07-10T03:08:49;16.20;99.90
29353;DHT22;16344;50.364;8.944;2022-07-10T03:11:14;16.20;99.90
29353;DHT22;16344;50.364;8.944;2022-07-10T03:13:40;16.20;99.90
29353;DHT22;16344;50.364;8.944;2022-07-10T03:16:06;16.20;99.90
29353;DHT22;16344;50.364;8.944;2022-07-10T03:18:31;16.20;99.90
29353;DHT22;16344;50.364;8.944;2022-07-10T03:20:57;16.20;99.90
29353;DHT22;16344;50.364;8.944;2022-07-10T03:23:23;16.20;99.90
29353;DHT22;16344;50.364;8.944;2022-07-10T03:25:49;16.20;99.90
29353;DHT22;16344;50.364;8.944;2022-07-10T03:28:14;16.10;99.90
29353;DHT22;16344;50.364;8.944;2022-07-10T03:30:40;16.10;99.90
29353;DHT22;16344;50.364;8.944;2022-07-10T03:33:05;16.10;99.90
29353;DHT22;16344;50.364;8.944;2022-07-10T03:35:31;16.10;99.90
29353;DHT22;16344;50.364;8.944;2022-07-10T03:37:57;16.10;99.90
29353;DHT22;16344;50.364;8.944;2022-07-10T03:40:22;16.10;99.90
29353;DHT22;16344;50.364;8.944;2022-07-10T03:42:49;16.10;99.90
29353;DHT22;16344;50.364;8.944;2022-07-10T03:45:14;16.10;99.90
29353;DHT22;16344;50.364;8.944;2022-07-10T03:47:40;16.20;99.90
29353;DHT22;16344;50.364;8.944;2022-07-10T03:50:06;16.10;99.90
29353;DHT22;16344;50.364;8.944;2022-07-10T03:52:31;16.10;99.90
29353;DHT22;16344;50.364;8.944;2022-07-10T03:54:57;16.20;99.90
29353;DHT22;16344;50.364;8.944;2022-07-10T03:57:22;16.20;99.90
29353;DHT22;16344;50.364;8.944;2022-07-10T04:00:07;16.20;99.90
29353;DHT22;16344;50.364;8.944;2022-07-10T04:02:33;16.20;99.90
29353;DHT22;16344;50.364;8.944;2022-07-10T04:04:59;16.20;99.90
29353;DHT22;16344;50.364;8.944;2022-07-10T04:07:25;16.30;99.90
29353;DHT22;16344;50.364;8.944;2022-07-10T04:09:50;16.30;99.90
29353;DHT22;16344;50.364;8.944;2022-07-10T04:12:15;16.30;99.90
29353;DHT22;16344;50.364;8.944;2022-07-10T04:14:41;16.20;99.90
29353;DHT22;16344;50.364;8.944;2022-07-10T04:17:07;16.30;99.90
29353;DHT22;16344;50.364;8.944;2022-07-10T04:19:32;16.30;99.90
29353;DHT22;16344;50.364;8.944;2022-07-10T04:21:58;16.40;99.90
29353;DHT22;16344;50.364;8.944;2022-07-10T04:24:23;16.40;99.90
29353;DHT22;16344;50.364;8.944;2022-07-10T04:26:49;16.50;99.90
29353;DHT22;16344;50.364;8.944;2022-07-10T04:29:14;16.70;99.90
29353;DHT22;16344;50.364;8.944;2022-07-10T04:31:40;16.70;99.90
29353;DHT22;16344;50.364;8.944;2022-07-10T04:34:06;16.80;99.90
29353;DHT22;16344;50.364;8.944;2022-07-10T04:36:31;16.90;99.90
29353;DHT22;16344;50.364;8.944;2022-07-10T04:38:57;17.00;99.90
29353;DHT22;16344;50.364;8.944;2022-07-10T04:41:22;17.20;99.90
29353;DHT22;16344;50.364;8.944;2022-07-10T04:43:48;17.40;99.90
29353;DHT22;16344;50.364;8.944;2022-07-10T04:46:13;17.90;58.70
29353;DHT22;16344;50.364;8.944;2022-07-10T04:48:39;18.30;1.80
29353;DHT22;16344;50.364;8.944;2022-07-10T04:51:04;18.90;1.00
29353;DHT22;16344;50.364;8.944;2022-07-10T04:53:30;19.60;1.00
29353;DHT22;16344;50.364;8.944;2022-07-10T04:55:55;20.40;1.00
29353;DHT22;16344;50.364;8.944;2022-07-10T04:58:22;21.50;1.00
29353;DHT22;16344;50.364;8.944;2022-07-10T05:00:48;22.90;1.00
29353;DHT22;16344;50.364;8.944;2022-07-10T05:03:13;24.50;1.00
29353;DHT22;16344;50.364;8.944;2022-07-10T05:05:41;26.00;1.00
29353;DHT22;16344;50.364;8.944;2022-07-10T05:08:06;27.00;99.90
29353;DHT22;16344;50.364;8.944;2022-07-10T05:10:32;27.00;99.90
29353;DHT22;16344;50.364;8.944;2022-07-10T05:12:57;26.50;99.90
29353;DHT22;16344;50.364;8.944;2022-07-10T05:15:23;25.60;99.90
29353;DHT22;16344;50.364;8.944;2022-07-10T05:17:48;24.40;99.90
29353;DHT22;16344;50.364;8.944;2022-07-10T05:20:13;23.40;99.90
29353;DHT22;16344;50.364;8.944;2022-07-10T05:22:39;22.50;1.00
29353;DHT22;16344;50.364;8.944;2022-07-10T05:25:05;21.70;1.00
29353;DHT22;16344;50.364;8.944;2022-07-10T05:27:30;21.20;1.00
29353;DHT22;16344;50.364;8.944;2022-07-10T05:29:56;20.70;1.00
29353;DHT22;16344;50.364;8.944;2022-07-10T05:32:21;20.10;1.00
29353;DHT22;16344;50.364;8.944;2022-07-10T05:34:47;19.60;1.00
29353;DHT22;16344;50.364;8.944;2022-07-10T05:37:12;19.30;1.00
29353;DHT22;16344;50.364;8.944;2022-07-10T05:39:38;19.00;1.00
29353;DHT22;16344;50.364;8.944;2022-07-10T05:42:04;18.80;1.00
29353;DHT22;16344;50.364;8.944;2022-07-10T05:44:29;18.70;1.00
29353;DHT22;16344;50.364;8.944;2022-07-10T05:46:55;18.60;1.00
29353;DHT22;16344;50.364;8.944;2022-07-10T05:49:21;18.50;1.00
29353;DHT22;16344;50.364;8.944;2022-07-10T05:51:47;18.20;1.00
29353;DHT22;16344;50.364;8.944;2022-07-10T05:54:12;18.10;1.00
29353;DHT22;16344;50.364;8.944;2022-07-10T05:56:38;17.90;3.10
29353;DHT22;16344;50.364;8.944;2022-07-10T05:59:03;17.90;25.30
29353;DHT22;16344;50.364;8.944;2022-07-10T06:01:29;17.80;48.50
29353;DHT22;16344;50.364;8.944;2022-07-10T06:03:55;17.90;87.60
29353;DHT22;16344;50.364;8.944;2022-07-10T06:06:20;17.90;32.70
29353;DHT22;16344;50.364;8.944;2022-07-10T06:08:46;18.10;23.80
29353;DHT22;16344;50.364;8.944;2022-07-10T06:11:12;18.30;1.00
29353;DHT22;16344;50.364;8.944;2022-07-10T06:13:38;18.50;1.00
29353;DHT22;16344;50.364;8.944;2022-07-10T06:16:04;18.60;1.00
29353;DHT22;16344;50.364;8.944;2022-07-10T06:18:30;18.70;1.00
29353;DHT22;16344;50.364;8.944;2022-07-10T06:20:56;18.70;1.00
29353;DHT22;16344;50.364;8.944;2022-07-10T06:23:21;18.60;1.00
29353;DHT22;16344;50.364;8.944;2022-07-10T06:25:47;18.50;1.00
29353;DHT22;16344;50.364;8.944;2022-07-10T06:28:15;18.40;1.00
29353;DHT22;16344;50.364;8.944;2022-07-10T06:30:40;18.20;1.00
29353;DHT22;16344;50.364;8.944;2022-07-10T06:33:06;18.00;1.00
29353;DHT22;16344;50.364;8.944;2022-07-10T06:35:31;17.90;3.40
29353;DHT22;16344;50.364;8.944;2022-07-10T06:37:57;17.90;1.00
29353;DHT22;16344;50.364;8.944;2022-07-10T06:40:23;18.00;11.60
29353;DHT22;16344;50.364;8.944;2022-07-10T06:42:48;17.90;25.00
29353;DHT22;16344;50.364;8.944;2022-07-10T06:45:14;18.00;23.00
29353;DHT22;16344;50.364;8.944;2022-07-10T06:47:40;17.90;18.90
29353;DHT22;16344;50.364;8.944;2022-07-10T06:50:21;18.00;37.30
29353;DHT22;16344;50.364;8.944;2022-07-10T06:52:47;18.00;46.50
29353;DHT22;16344;50.364;8.944;2022-07-10T06:55:13;18.10;38.00
29353;DHT22;16344;50.364;8.944;2022-07-10T06:57:38;18.10;1.00
29353;DHT22;16344;50.364;8.944;2022-07-10T07:00:05;17.80;1.00
29353;DHT22;16344;50.364;8.944;2022-07-10T07:02:31;17.80;1.00
29353;DHT22;16344;50.364;8.944;2022-07-10T07:04:57;17.80;1.00
29353;DHT22;16344;50.364;8.944;2022-07-10T07:07:23;17.90;1.00
29353;DHT22;16344;50.364;8.944;2022-07-10T07:09:48;17.80;1.00
29353;DHT22;16344;50.364;8.944;2022-07-10T07:12:16;17.90;1.00
29353;DHT22;16344;50.364;8.944;2022-07-10T07:14:42;18.00;1.00
29353;DHT22;16344;50.364;8.944;2022-07-10T07:17:08;18.10;1.00
29353;DHT22;16344;50.364;8.944;2022-07-10T07:19:39;18.10;1.00
29353;DHT22;16344;50.364;8.944;2022-07-10T07:22:24;18.10;1.00
29353;DHT22;16344;50.364;8.944;2022-07-10T07:25:09;18.00;1.00
29353;DHT22;16344;50.364;8.944;2022-07-10T07:27:36;18.10;1.00
29353;DHT22;16344;50.364;8.944;2022-07-10T07:30:07;18.20;1.00
29353;DHT22;16344;50.364;8.944;2022-07-10T07:32:33;18.30;1.00
29353;DHT22;16344;50.364;8.944;2022-07-10T07:35:00;18.30;1.00
29353;DHT22;16344;50.364;8.944;2022-07-10T07:40:06;18.20;1.00
29353;DHT22;16344;50.364;8.944;2022-07-10T07:42:31;18.10;1.00
29353;DHT22;16344;50.364;8.944;2022-07-10T07:44:57;18.10;1.00
29353;DHT22;16344;50.364;8.944;2022-07-10T07:47:23;18.10;1.00
29353;DHT22;16344;50.364;8.944;2022-07-10T07:49:48;18.20;1.00
29353;DHT22;16344;50.364;8.944;2022-07-10T07:52:14;18.20;1.00
29353;DHT22;16344;50.364;8.944;2022-07-10T07:54:40;18.20;1.00
29353;DHT22;16344;50.364;8.944;2022-07-10T07:57:05;18.20;1.00
29353;DHT22;16344;50.364;8.944;2022-07-10T07:59:31;18.10;1.00
29353;DHT22;16344;50.364;8.944;2022-07-10T08:01:57;18.00;1.00
29353;DHT22;16344;50.364;8.944;2022-07-10T08:04:22;18.10;1.00
29353;DHT22;16344;50.364;8.944;2022-07-10T08:06:47;18.20;1.00
29353;DHT22;16344;50.364;8.944;2022-07-10T08:09:20;18.20;1.00
29353;DHT22;16344;50.364;8.944;2022-07-10T08:11:46;18.20;1.00
29353;DHT22;16344;50.364;8.944;2022-07-10T08:14:15;18.10;1.00
29353;DHT22;16344;50.364;8.944;2022-07-10T08:16:40;18.30;1.00
29353;DHT22;16344;50.364;8.944;2022-07-10T08:19:06;18.20;1.00
29353;DHT22;16344;50.364;8.944;2022-07-10T08:21:32;18.30;1.00
29353;DHT22;16344;50.364;8.944;2022-07-10T08:23:57;18.30;1.00
29353;DHT22;16344;50.364;8.944;2022-07-10T08:26:24;18.30;1.00
29353;DHT22;16344;50.364;8.944;2022-07-10T08:28:49;18.40;1.00
29353;DHT22;16344;50.364;8.944;2022-07-10T08:31:15;18.50;1.00
29353;DHT22;16344;50.364;8.944;2022-07-10T08:33:40;18.60;1.00
29353;DHT22;16344;50.364;8.944;2022-07-10T08:36:06;18.60;1.00
29353;DHT22;16344;50.364;8.944;2022-07-10T08:38:32;18.50;1.00
29353;DHT22;16344;50.364;8.944;2022-07-10T08:40:57;18.50;1.00
29353;DHT22;16344;50.364;8.944;2022-07-10T08:43:24;18.50;1.00
29353;DHT22;16344;50.364;8.944;2022-07-10T08:45:53;18.70;1.00
29353;DHT22;16344;50.364;8.944;2022-07-10T08:48:23;18.70;1.00
29353;DHT22;16344;50.364;8.944;2022-07-10T08:50:53;18.70;1.00
29353;DHT22;16344;50.364;8.944;2022-07-10T08:53:32;18.70;1.00
29353;DHT22;16344;50.364;8.944;2022-07-10T08:55:58;18.80;1.00
29353;DHT22;16344;50.364;8.944;2022-07-10T08:58:26;18.90;1.00
29353;DHT22;16344;50.364;8.944;2022-07-10T09:00:52;19.10;1.00
29353;DHT22;16344;50.364;8.944;2022-07-10T09:03:18;19.10;1.00
29353;DHT22;16344;50.364;8.944;2022-07-10T09:05:44;19.10;1.00
29353;DHT22;16344;50.364;8.944;2022-07-10T09:08:27;19.10;1.00
29353;DHT22;16344;50.364;8.944;2022-07-10T09:11:16;19.20;1.00
29353;DHT22;16344;50.364;8.944;2022-07-10T09:13:49;19.10;1.00
29353;DHT22;16344;50.364;8.944;2022-07-10T09:16:29;19.10;1.00
29353;DHT22;16344;50.364;8.944;2022-07-10T09:18:55;19.10;1.00
29353;DHT22;16344;50.364;8.944;2022-07-10T09:21:22;19.20;1.00
29353;DHT22;16344;50.364;8.944;2022-07-10T09:23:48;19.20;1.00
29353;DHT22;16344;50.364;8.944;2022-07-10T09:26:14;19.10;1.00
29353;DHT22;16344;50.364;8.944;2022-07-10T09:28:39;19.20;1.00
29353;DHT22;16344;50.364;8.944;2022-07-10T09:31:05;19.40;1.00
29353;DHT22;16344;50.364;8.944;2022-07-10T09:33:32;19.50;1.00
29353;DHT22;16344;50.364;8.944;2022-07-10T09:36:05;19.80;1.00
29353;DHT22;16344;50.364;8.944;2022-07-10T09:38:52;20.00;1.00
29353;DHT22;16344;50.364;8.944;2022-07-10T09:41:30;20.20;1.00
29353;DHT22;16344;50.364;8.944;2022-07-10T09:51:31;20.60;1.00
29353;DHT22;16344;50.364;8.944;2022-07-10T09:54:00;20.60;1.00
29353;DHT22;16344;50.364;8.944;2022-07-10T09:56:26;20.60;1.00
29353;DHT22;16344;50.364;8.944;2022-07-10T09:58:56;20.30;1.00
29353;DHT22;16344;50.364;8.944;2022-07-10T10:01:25;20.10;1.00
29353;DHT22;16344;50.364;8.944;2022-07-10T10:03:53;20.10;1.00
29353;DHT22;16344;50.364;8.944;2022-07-10T10:06:19;20.00;1.00
29353;DHT22;16344;50.364;8.944;2022-07-10T10:09:03;20.10;1.00
29353;DHT22;16344;50.364;8.944;2022-07-10T10:11:32;20.20;1.00
29353;DHT22;16344;50.364;8.944;2022-07-10T10:13:58;20.40;1.00
29353;DHT22;16344;50.364;8.944;2022-07-10T10:16:25;20.70;1.00
29353;DHT22;16344;50.364;8.944;2022-07-10T10:18:52;20.80;1.00
29353;DHT22;16344;50.364;8.944;2022-07-10T10:21:38;21.00;1.00
29353;DHT22;16344;50.364;8.944;2022-07-10T10:24:04;21.40;1.00
29353;DHT22;16344;50.364;8.944;2022-07-10T10:26:32;21.80;1.00
29353;DHT22;16344;50.364;8.944;2022-07-10T10:28:59;22.10;1.00
29353;DHT22;16344;50.364;8.944;2022-07-10T10:31:27;22.10;1.00
29353;DHT22;16344;50.364;8.944;2022-07-10T10:33:57;22.10;1.00
29353;DHT22;16344;50.364;8.944;2022-07-10T10:36:46;21.90;1.00
29353;DHT22;16344;50.364;8.944;2022-07-10T10:39:17;21.80;1.00
29353;DHT22;16344;50.364;8.944;2022-07-10T10:41:51;21.70;1.00
29353;DHT22;16344;50.364;8.944;2022-07-10T10:46:56;21.50;1.00
29353;DHT22;16344;50.364;8.944;2022-07-10T10:49:40;21.70;1.00
29353;DHT22;16344;50.364;8.944;2022-07-10T10:52:13;21.60;1.00
29353;DHT22;16344;50.364;8.944;2022-07-10T10:57:22;21.90;1.00
29353;DHT22;16344;50.364;8.944;2022-07-10T10:59:52;22.00;1.00
29353;DHT22;16344;50.364;8.944;2022-07-10T11:02:29;22.10;1.00
29353;DHT22;16344;50.364;8.944;2022-07-10T11:08:02;22.40;1.00
29353;DHT22;16344;50.364;8.944;2022-07-10T11:15:26;22.70;99.90
29353;DHT22;16344;50.364;8.944;2022-07-10T11:17:52;22.80;99.90
29353;DHT22;16344;50.364;8.944;2022-07-10T11:20:18;22.70;99.90
29353;DHT22;16344;50.364;8.944;2022-07-10T11:23:09;22.80;99.90
29353;DHT22;16344;50.364;8.944;2022-07-10T11:25:43;22.80;99.90
29353;DHT22;16344;50.364;8.944;2022-07-10T11:28:21;22.80;99.90
29353;DHT22;16344;50.364;8.944;2022-07-10T11:30:50;22.50;99.90
29353;DHT22;16344;50.364;8.944;2022-07-10T11:33:16;22.30;99.90
29353;DHT22;16344;50.364;8.944;2022-07-10T11:35:52;22.40;99.90
29353;DHT22;16344;50.364;8.944;2022-07-10T11:40:46;22.50;99.90
29353;DHT22;16344;50.364;8.944;2022-07-10T11:43:12;22.80;99.90
29353;DHT22;16344;50.364;8.944;2022-07-10T11:45:43;22.90;99.90
29353;DHT22;16344;50.364;8.944;2022-07-10T11:48:19;23.00;99.90
29353;DHT22;16344;50.364;8.944;2022-07-10T11:50:45;23.00;99.90
29353;DHT22;16344;50.364;8.944;2022-07-10T11:53:10;22.90;99.90
29353;DHT22;16344;50.364;8.944;2022-07-10T11:55:37;23.00;99.90
29353;DHT22;16344;50.364;8.944;2022-07-10T11:58:13;23.00;99.90
29353;DHT22;16344;50.364;8.944;2022-07-10T12:00:39;23.00;99.90
29353;DHT22;16344;50.364;8.944;2022-07-10T12:03:20;22.90;99.90
29353;DHT22;16344;50.364;8.944;2022-07-10T12:05:47;22.90;99.90
29353;DHT22;16344;50.364;8.944;2022-07-10T12:08:13;22.90;99.90
29353;DHT22;16344;50.364;8.944;2022-07-10T12:10:39;23.00;99.90
29353;DHT22;16344;50.364;8.944;2022-07-10T12:13:12;23.20;99.90
29353;DHT22;16344;50.364;8.944;2022-07-10T12:15:39;23.30;99.90
29353;DHT22;16344;50.364;8.944;2022-07-10T12:18:21;23.40;99.90
29353;DHT22;16344;50.364;8.944;2022-07-10T12:20:49;23.30;99.90
29353;DHT22;16344;50.364;8.944;2022-07-10T12:23:16;23.20;99.90
29353;DHT22;16344;50.364;8.944;2022-07-10T12:25:43;23.20;99.90
29353;DHT22;16344;50.364;8.944;2022-07-10T12:28:09;23.10;99.90
29353;DHT22;16344;50.364;8.944;2022-07-10T12:30:45;23.00;99.90
29353;DHT22;16344;50.364;8.944;2022-07-10T12:33:13;22.90;99.90
29353;DHT22;16344;50.364;8.944;2022-07-10T12:35:49;23.00;99.90
29353;DHT22;16344;50.364;8.944;2022-07-10T12:38:17;22.70;99.90
29353;DHT22;16344;50.364;8.944;2022-07-10T12:40:43;22.50;99.90
29353;DHT22;16344;50.364;8.944;2022-07-10T12:43:09;22.40;99.90
29353;DHT22;16344;50.364;8.944;2022-07-10T12:45:37;22.40;99.90
29353;DHT22;16344;50.364;8.944;2022-07-10T12:48:04;22.30;99.90
29353;DHT22;16344;50.364;8.944;2022-07-10T12:50:31;22.40;99.90
29353;DHT22;16344;50.364;8.944;2022-07-10T12:53:08;22.60;99.90
29353;DHT22;16344;50.364;8.944;2022-07-10T12:55:35;22.80;99.90
29353;DHT22;16344;50.364;8.944;2022-07-10T12:58:07;22.80;99.90
29353;DHT22;16344;50.364;8.944;2022-07-10T13:00:36;22.90;99.90
29353;DHT22;16344;50.364;8.944;2022-07-10T13:03:11;22.70;99.90
29353;DHT22;16344;50.364;8.944;2022-07-10T13:05:39;22.70;99.90
29353;DHT22;16344;50.364;8.944;2022-07-10T13:10:35;22.70;99.90
29353;DHT22;16344;50.364;8.944;2022-07-10T13:13:02;22.80;99.90
29353;DHT22;16344;50.364;8.944;2022-07-10T13:15:28;22.90;99.90
29353;DHT22;16344;50.364;8.944;2022-07-10T13:17:55;22.80;99.90
29353;DHT22;16344;50.364;8.944;2022-07-10T13:20:20;22.70;99.90
29353;DHT22;16344;50.364;8.944;2022-07-10T13:22:46;22.60;99.90
29353;DHT22;16344;50.364;8.944;2022-07-10T13:25:11;22.60;99.90
29353;DHT22;16344;50.364;8.944;2022-07-10T13:27:37;22.40;99.90
29353;DHT22;16344;50.364;8.944;2022-07-10T13:30:06;22.40;99.90
29353;DHT22;16344;50.364;8.944;2022-07-10T13:32:32;22.20;99.90
29353;DHT22;16344;50.364;8.944;2022-07-10T13:34:58;22.10;99.90
29353;DHT22;16344;50.364;8.944;2022-07-10T13:37:24;22.20;99.90
29353;DHT22;16344;50.364;8.944;2022-07-10T13:39:50;22.10;99.90
29353;DHT22;16344;50.364;8.944;2022-07-10T13:42:15;22.00;99.90
29353;DHT22;16344;50.364;8.944;2022-07-10T13:44:41;21.90;99.90
29353;DHT22;16344;50.364;8.944;2022-07-10T13:47:06;21.70;99.90
29353;DHT22;16344;50.364;8.944;2022-07-10T13:49:32;21.70;99.90
29353;DHT22;16344;50.364;8.944;2022-07-10T13:51:57;21.80;99.90
29353;DHT22;16344;50.364;8.944;2022-07-10T13:54:23;21.90;99.90
29353;DHT22;16344;50.364;8.944;2022-07-10T13:56:49;22.00;99.90
29353;DHT22;16344;50.364;8.944;2022-07-10T13:59:14;22.10;99.90
29353;DHT22;16344;50.364;8.944;2022-07-10T14:01:40;22.10;99.90
29353;DHT22;16344;50.364;8.944;2022-07-10T14:04:05;22.10;99.90
29353;DHT22;16344;50.364;8.944;2022-07-10T14:06:31;22.00;99.90
29353;DHT22;16344;50.364;8.944;2022-07-10T14:08:56;22.20;99.90
29353;DHT22;16344;50.364;8.944;2022-07-10T14:11:22;22.10;99.90
29353;DHT22;16344;50.364;8.944;2022-07-10T14:13:47;22.20;99.90
29353;DHT22;16344;50.364;8.944;2022-07-10T14:16:13;22.30;99.90
29353;DHT22;16344;50.364;8.944;2022-07-10T14:18:39;22.30;99.90
29353;DHT22;16344;50.364;8.944;2022-07-10T14:21:06;22.30;99.90
29353;DHT22;16344;50.364;8.944;2022-07-10T14:23:35;22.40;99.90
29353;DHT22;16344;50.364;8.944;2022-07-10T14:26:00;22.20;99.90
29353;DHT22;16344;50.364;8.944;2022-07-10T14:28:26;22.10;99.90
29353;DHT22;16344;50.364;8.944;2022-07-10T14:30:51;22.00;99.90
29353;DHT22;16344;50.364;8.944;2022-07-10T14:33:17;22.10;99.90
29353;DHT22;16344;50.364;8.944;2022-07-10T14:35:43;22.00;99.90
29353;DHT22;16344;50.364;8.944;2022-07-10T14:38:08;22.10;99.90
29353;DHT22;16344;50.364;8.944;2022-07-10T14:40:34;22.20;99.90
29353;DHT22;16344;50.364;8.944;2022-07-10T14:42:59;22.20;99.90
29353;DHT22;16344;50.364;8.944;2022-07-10T14:45:25;22.30;99.90
29353;DHT22;16344;50.364;8.944;2022-07-10T14:47:51;22.20;99.90
29353;DHT22;16344;50.364;8.944;2022-07-10T14:50:16;22.30;99.90
29353;DHT22;16344;50.364;8.944;2022-07-10T14:52:43;22.20;99.90
29353;DHT22;16344;50.364;8.944;2022-07-10T14:55:08;22.30;99.90
29353;DHT22;16344;50.364;8.944;2022-07-10T14:57:34;22.40;99.90
29353;DHT22;16344;50.364;8.944;2022-07-10T14:59:59;22.40;99.90
29353;DHT22;16344;50.364;8.944;2022-07-10T15:02:25;22.40;99.90
29353;DHT22;16344;50.364;8.944;2022-07-10T15:04:50;22.40;99.90
29353;DHT22;16344;50.364;8.944;2022-07-10T15:07:16;22.30;99.90
29353;DHT22;16344;50.364;8.944;2022-07-10T15:09:46;22.20;99.90
29353;DHT22;16344;50.364;8.944;2022-07-10T15:12:11;22.20;99.90
29353;DHT22;16344;50.364;8.944;2022-07-10T15:14:37;22.10;99.90
29353;DHT22;16344;50.364;8.944;2022-07-10T15:17:03;22.10;99.90
29353;DHT22;16344;50.364;8.944;2022-07-10T15:19:29;22.10;99.90
29353;DHT22;16344;50.364;8.944;2022-07-10T15:21:54;22.10;99.90
29353;DHT22;16344;50.364;8.944;2022-07-10T15:24:20;22.10;99.90
29353;DHT22;16344;50.364;8.944;2022-07-10T15:26:46;22.00;99.90
29353;DHT22;16344;50.364;8.944;2022-07-10T15:29:12;22.00;99.90
29353;DHT22;16344;50.364;8.944;2022-07-10T15:31:38;22.00;99.90
29353;DHT22;16344;50.364;8.944;2022-07-10T15:34:08;22.10;99.90
29353;DHT22;16344;50.364;8.944;2022-07-10T15:36:34;22.20;99.90
29353;DHT22;16344;50.364;8.944;2022-07-10T15:39:00;22.20;99.90
29353;DHT22;16344;50.364;8.944;2022-07-10T15:41:26;22.10;99.90
29353;DHT22;16344;50.364;8.944;2022-07-10T15:43:52;22.10;99.90
29353;DHT22;16344;50.364;8.944;2022-07-10T15:46:17;22.20;99.90
29353;DHT22;16344;50.364;8.944;2022-07-10T15:48:43;22.20;99.90
29353;DHT22;16344;50.364;8.944;2022-07-10T15:51:09;22.20;99.90
29353;DHT22;16344;50.364;8.944;2022-07-10T15:53:34;22.10;99.90
29353;DHT22;16344;50.364;8.944;2022-07-10T15:56:00;22.00;1.00
29353;DHT22;16344;50.364;8.944;2022-07-10T15:58:27;21.80;1.00
29353;DHT22;16344;50.364;8.944;2022-07-10T16:00:53;21.70;1.00
29353;DHT22;16344;50.364;8.944;2022-07-10T16:03:18;21.70;1.00